Hovedside
METAR-TAF:

METAR-TAF

Lufthavner :

Shillong, India

breddegrad: 25-42-13N, lengdegrad: 091-58-43E, høyde over havet: 887 m

Gjeldene værobservasjon

Denne rapporten ble laget for 16 timer og 8 minutter siden, klokken 10:30 UTC
Flau vind
Temperatur 23°C
Luftfuktighet 94%
Trykk 1004 hPa
Sikt: 2000 m
Få skyer i en høyde av 800 ft
Spredte skyer i en høyde av 1800 ft
Overskyet i en høyde av 8000 ft
dis,

METAR: VEBI 191030Z 00000KT 2000 BR FEW008 SCT018 OVC080 23/22 Q1004 NOSIG

Tid: 08:08 (02:38 UTC)

Varsel

Denne rapporten ble laget for 3 timer og 38 minutter siden, klokken 23:00 UTC
Varsel gyldig fra 20. klokken 00 UTC til 20. klokken 09 UTC
Vind 5 kt fra Sørøst
Sikt: 2500 m
Få skyer i en høyde av 900 ft
Spredte skyer i en høyde av 1700 ft
Få skyer i en høyde av 2500 ft, Bygeskyer.
Brutte skyer i en høyde av 9000 ft
lett regn, dis,

TAF: VEBI 192300Z 2000/2009 14005KT 2500 -RA BR FEW009 SCT017 FEW025CB BKN090

Værobservasjoner og værvarsel for over 4000 flyplasser (METAR- og TAF-rapporter).

Tilgjengelige stasjoner er representert av de røde og gule prikkene på kartet.

Hold musepekeren over prikken for å se navnet på stasjonen.

Klikk så for å se værobservasjoner og -varsler.

For å forandre kartet kan du klikke på den grønne knappen med svart kryss for å zoome inn, på den grønne knappen med strek for å zoome ut, eller på de grønne pilene for å se tilstøtende kart.


METAR-TAF: